Time;durP1;ratioP1;P1;durP2;ratioP2;P2;SDS_P1;SDS_P2;PMS_P1;PMS_P2;Temp;Humidity;BMP_temperature;BMP_pressure;BME280_temperature;BME280_humidity;BME280_pressure;Samples;Min_cycle;Max_cycle;Signal;HPM_P1;HPM_P2
2021/05/24 00:00:56;;;;;;;3.10;1.30;;;8.40;69.20;;;;;;5092959;28;20381;-78
2021/05/24 00:03:22;;;;;;;2.90;1.60;;;8.50;69.30;;;;;;5092966;28;20492;-77
2021/05/24 00:05:48;;;;;;;3.42;1.17;;;8.50;69.20;;;;;;5092876;28;20480;-77
2021/05/24 00:08:14;;;;;;;1.98;1.23;;;8.50;69.40;;;;;;5092451;28;20032;-77
2021/05/24 00:10:41;;;;;;;6.03;1.63;;;8.40;69.60;;;;;;5092703;28;20051;-77
2021/05/24 00:13:09;;;;;;;2.92;1.13;;;8.30;69.90;;;;;;5092718;28;20032;-76
2021/05/24 00:15:39;;;;;;;4.82;1.42;;;8.30;70.00;;;;;;5092837;28;20024;-76
2021/05/24 00:18:05;;;;;;;5.88;1.50;;;8.30;70.00;;;;;;5092641;28;20051;-77
2021/05/24 00:20:34;;;;;;;2.53;1.20;;;8.30;70.30;;;;;;5075359;28;20047;-77
2021/05/24 00:23:00;;;;;;;2.42;1.00;;;8.40;70.10;;;;;;5092549;28;20545;-76
2021/05/24 00:25:27;;;;;;;3.88;1.10;;;8.30;70.20;;;;;;5093548;28;20085;-76
2021/05/24 00:27:53;;;;;;;2.72;1.10;;;8.40;69.80;;;;;;5092671;28;20030;-77
2021/05/24 00:30:19;;;;;;;1.25;0.90;;;8.40;69.60;;;;;;5092195;28;20020;-78
2021/05/24 00:32:45;;;;;;;4.32;1.00;;;8.40;69.60;;;;;;5092169;28;20123;-76
2021/05/24 00:35:12;;;;;;;2.88;1.05;;;8.40;69.50;;;;;;5093446;28;20115;-76
2021/05/24 00:37:38;;;;;;;3.38;1.00;;;8.40;69.60;;;;;;5110561;28;20032;-78
2021/05/24 00:40:06;;;;;;;2.65;1.05;;;8.30;69.70;;;;;;5107955;28;20027;-78
2021/05/24 00:42:32;;;;;;;2.35;1.02;;;8.30;69.60;;;;;;5092406;28;20111;-79
2021/05/24 00:44:58;;;;;;;3.45;0.77;;;8.30;69.70;;;;;;5091959;28;20389;-78
2021/05/24 00:47:29;;;;;;;4.82;1.02;;;8.30;70.70;;;;;;5091578;28;20101;-78
2021/05/24 00:49:54;;;;;;;6.60;1.30;;;8.30;69.90;;;;;;5092250;28;20380;-77
2021/05/24 00:52:20;;;;;;;3.95;0.93;;;8.40;69.80;;;;;;5092078;28;20030;-76
2021/05/24 00:54:46;;;;;;;2.60;0.98;;;8.40;69.70;;;;;;5091889;28;20127;-77
2021/05/24 00:57:11;;;;;;;2.92;1.02;;;8.40;69.60;;;;;;5075108;28;20028;-79
2021/05/24 00:59:37;;;;;;;0.90;0.77;;;8.50;69.40;;;;;;5092113;28;20085;-76
2021/05/24 01:02:04;;;;;;;3.78;0.95;;;8.50;68.90;;;;;;5075195;28;20024;-78
2021/05/24 01:04:30;;;;;;;1.88;0.80;;;8.60;68.60;;;;;;5090901;28;20020;-77
2021/05/24 01:06:56;;;;;;;2.35;1.00;;;8.60;68.40;;;;;;5091865;28;20495;-77
2021/05/24 01:09:23;;;;;;;2.70;0.77;;;8.60;68.10;;;;;;5075104;28;20039;-77
2021/05/24 01:11:50;;;;;;;2.78;0.90;;;8.70;68.10;;;;;;5093155;28;20088;-81
2021/05/24 01:14:17;;;;;;;2.92;1.10;;;8.70;67.80;;;;;;5091738;28;20032;-76
2021/05/24 01:16:51;;;;;;;2.15;1.08;;;8.80;67.50;;;;;;5092898;28;20092;-76
2021/05/24 01:19:17;;;;;;;2.35;1.15;;;8.80;67.40;;;;;;5093104;28;20032;-76
2021/05/24 01:21:43;;;;;;;1.00;0.70;;;8.80;67.40;;;;;;5092036;28;20085;-75
2021/05/24 01:24:10;;;;;;;3.28;0.80;;;8.80;68.40;;;;;;5091534;28;20017;-77
2021/05/24 01:26:35;;;;;;;4.25;0.90;;;8.70;67.60;;;;;;5074840;28;20115;-77
2021/05/24 01:29:01;;;;;;;3.75;0.80;;;8.80;68.00;;;;;;5091717;28;20113;-77
2021/05/24 01:31:27;;;;;;;1.75;0.93;;;8.80;68.10;;;;;;5091410;28;20070;-76
2021/05/24 01:33:57;;;;;;;3.55;0.90;;;8.80;68.70;;;;;;5091325;28;20024;-75
2021/05/24 01:36:27;;;;;;;2.22;0.90;;;8.80;68.70;;;;;;5091315;28;20028;-75
2021/05/24 01:38:53;;;;;;;1.73;0.60;;;8.70;68.10;;;;;;5091543;28;20480;-76
2021/05/24 01:41:19;;;;;;;1.55;0.90;;;8.70;67.50;;;;;;5091566;28;20024;-76
2021/05/24 01:43:46;;;;;;;4.82;1.00;;;8.70;67.40;;;;;;5092795;28;20093;-75
2021/05/24 01:46:12;;;;;;;2.30;1.17;;;8.80;67.00;;;;;;5091184;28;20036;-75
2021/05/24 01:48:40;;;;;;;2.72;0.57;;;8.80;66.80;;;;;;5091800;28;20036;-75
2021/05/24 01:51:07;;;;;;;3.92;0.70;;;8.80;66.60;;;;;;5091450;28;20111;-75
2021/05/24 01:53:33;;;;;;;3.80;0.80;;;8.80;66.40;;;;;;5091686;28;20046;-75
2021/05/24 01:55:59;;;;;;;1.38;0.57;;;8.90;66.20;;;;;;5091044;28;20089;-75
2021/05/24 01:58:27;;;;;;;2.50;0.77;;;8.90;66.00;;;;;;5091357;28;20473;-75
2021/05/24 02:00:53;;;;;;;0.95;0.55;;;9.00;65.80;;;;;;5092145;28;20129;-75
2021/05/24 02:03:19;;;;;;;1.92;0.88;;;9.00;65.70;;;;;;5091753;28;20115;-76
2021/05/24 02:05:45;;;;;;;2.00;0.57;;;9.00;65.30;;;;;;5091336;28;20443;-75
2021/05/24 02:08:10;;;;;;;3.20;0.90;;;9.00;65.50;;;;;;5091377;28;20027;-75
2021/05/24 02:10:39;;;;;;;3.35;0.90;;;9.10;65.80;;;;;;5091163;28;20024;-76
2021/05/24 02:13:07;;;;;;;0.85;0.50;;;9.10;66.00;;;;;;5091382;28;20065;-76
2021/05/24 02:15:39;;;;;;;4.50;0.75;;;9.10;65.90;;;;;;5093139;28;20495;-75
2021/05/24 02:18:06;;;;;;;5.55;0.73;;;9.10;65.80;;;;;;5095000;28;20031;-76
2021/05/24 02:20:34;;;;;;;1.67;0.88;;;9.10;65.20;;;;;;5094809;28;20430;-75
2021/05/24 02:23:01;;;;;;;3.58;0.70;;;9.10;65.30;;;;;;5095116;28;20028;-76
2021/05/24 02:25:27;;;;;;;2.10;0.70;;;9.10;65.50;;;;;;5094900;28;20034;-75
2021/05/24 02:27:55;;;;;;;2.90;0.70;;;9.10;65.80;;;;;;5094690;28;20024;-75
2021/05/24 02:30:21;;;;;;;0.93;0.75;;;9.10;66.00;;;;;;5094691;28;20035;-75
2021/05/24 02:32:48;;;;;;;1.00;0.70;;;9.10;66.10;;;;;;5094528;28;20026;-76
2021/05/24 02:35:15;;;;;;;2.17;0.90;;;9.20;66.10;;;;;;5077930;28;20032;-76
2021/05/24 02:37:42;;;;;;;1.58;0.85;;;9.10;66.20;;;;;;5094779;28;20060;-76
2021/05/24 02:40:09;;;;;;;1.77;0.80;;;9.20;66.10;;;;;;5077729;28;20032;-75
2021/05/24 02:42:36;;;;;;;1.63;0.75;;;9.30;66.10;;;;;;5094206;28;20205;-75
2021/05/24 02:45:08;;;;;;;2.10;0.70;;;9.30;65.70;;;;;;5094232;28;20040;-75
2021/05/24 02:47:33;;;;;;;1.25;0.80;;;9.30;65.50;;;;;;5094680;28;20024;-75
2021/05/24 02:49:59;;;;;;;1.00;0.77;;;9.30;65.40;;;;;;5095640;28;20032;-75
2021/05/24 02:52:24;;;;;;;2.60;0.80;;;9.30;65.80;;;;;;5094508;28;20024;-75
2021/05/24 02:54:50;;;;;;;1.08;0.60;;;9.30;65.60;;;;;;5094588;28;20024;-75
2021/05/24 02:57:16;;;;;;;2.75;0.77;;;9.40;65.40;;;;;;5093985;28;20040;-77
2021/05/24 02:59:44;;;;;;;1.40;0.50;;;9.40;65.20;;;;;;5094038;28;20051;-77
2021/05/24 03:02:15;;;;;;;1.10;0.80;;;9.40;65.30;;;;;;5095453;28;20067;-77
2021/05/24 03:04:40;;;;;;;2.13;0.80;;;9.40;65.50;;;;;;5077654;28;20024;-77
2021/05/24 03:07:06;;;;;;;3.10;0.80;;;9.40;65.70;;;;;;5093731;28;20020;-76
2021/05/24 03:09:32;;;;;;;4.22;0.85;;;9.50;65.90;;;;;;5094087;28;20024;-77
2021/05/24 03:11:59;;;;;;;1.08;0.55;;;9.50;66.20;;;;;;5093794;28;20024;-76
2021/05/24 03:14:25;;;;;;;1.90;0.80;;;9.40;65.80;;;;;;5094200;28;20556;-76
2021/05/24 03:16:52;;;;;;;1.90;1.15;;;9.40;65.80;;;;;;5093743;28;20115;-76
2021/05/24 03:19:20;;;;;;;1.52;0.80;;;9.40;65.80;;;;;;5094659;28;20043;-76
2021/05/24 03:21:46;;;;;;;0.90;0.70;;;9.30;66.10;;;;;;5095375;28;20020;-76
2021/05/24 03:24:12;;;;;;;2.22;0.90;;;9.30;66.50;;;;;;5095267;28;20030;-76
2021/05/24 03:26:38;;;;;;;1.73;0.77;;;9.30;66.70;;;;;;5098338;28;20524;-76
2021/05/24 03:29:04;;;;;;;1.38;0.80;;;9.20;66.30;;;;;;5095137;28;20110;-76
2021/05/24 03:31:30;;;;;;;3.33;0.80;;;9.20;66.90;;;;;;5096038;28;20040;-76
2021/05/24 03:33:56;;;;;;;1.05;0.75;;;9.20;66.90;;;;;;5103162;28;20031;-76
2021/05/24 03:36:24;;;;;;;3.58;1.00;;;9.20;67.00;;;;;;5078105;28;20039;-76
2021/05/24 03:38:49;;;;;;;2.45;1.10;;;9.10;67.40;;;;;;5094694;28;20495;-76
2021/05/24 03:41:15;;;;;;;1.95;1.00;;;9.00;67.50;;;;;;5081160;28;20038;-76
2021/05/24 03:43:44;;;;;;;1.90;0.82;;;8.90;68.00;;;;;;5077755;28;20100;-75
2021/05/24 03:46:09;;;;;;;5.00;1.23;;;8.80;68.30;;;;;;5093751;28;20377;-76
2021/05/24 03:48:38;;;;;;;2.30;0.80;;;8.70;69.20;;;;;;5093159;28;20029;-76
2021/05/24 03:51:06;;;;;;;3.30;1.35;;;8.60;69.70;;;;;;5094569;28;20051;-76
2021/05/24 03:53:31;;;;;;;6.20;1.55;;;8.60;70.00;;;;;;5093503;28;20023;-75
2021/05/24 03:55:58;;;;;;;2.10;1.13;;;8.70;70.10;;;;;;5093322;28;20097;-76
2021/05/24 03:58:23;;;;;;;1.35;0.93;;;8.70;70.00;;;;;;5093102;28;20051;-76
2021/05/24 04:00:50;;;;;;;5.40;1.17;;;8.70;70.00;;;;;;5093198;28;20037;-76
2021/05/24 04:03:16;;;;;;;2.70;1.00;;;8.80;69.60;;;;;;5092954;28;20032;-76
2021/05/24 04:05:43;;;;;;;2.58;0.88;;;8.80;68.70;;;;;;5092843;28;20431;-77
2021/05/24 04:08:09;;;;;;;2.92;0.70;;;9.00;68.20;;;;;;5093088;28;20031;-77
2021/05/24 04:10:40;;;;;;;2.70;0.90;;;9.10;68.20;;;;;;5076041;28;20024;-78
2021/05/24 04:13:06;;;;;;;3.00;1.30;;;9.10;68.10;;;;;;5092900;28;20464;-78
2021/05/24 04:15:32;;;;;;;2.95;1.10;;;9.10;68.50;;;;;;5075896;28;20106;-78
2021/05/24 04:18:01;;;;;;;2.55;0.90;;;9.00;68.70;;;;;;5092690;28;20058;-79
2021/05/24 04:20:26;;;;;;;1.67;0.65;;;8.90;68.60;;;;;;5094169;28;20100;-78
2021/05/24 04:22:52;;;;;;;1.58;0.60;;;8.90;68.50;;;;;;5075764;28;20108;-78
2021/05/24 04:25:19;;;;;;;3.08;1.60;;;9.00;68.30;;;;;;5092645;28;20024;-79
2021/05/24 04:27:46;;;;;;;5.25;1.48;;;9.00;68.60;;;;;;5093979;28;20028;-79
2021/05/24 04:30:14;;;;;;;4.18;1.52;;;8.90;68.80;;;;;;5075578;28;20047;-78
2021/05/24 04:32:40;;;;;;;3.78;1.35;;;8.90;69.10;;;;;;5092465;28;20523;-78
2021/05/24 04:35:07;;;;;;;3.17;1.25;;;8.90;69.30;;;;;;5092545;28;20483;-78
2021/05/24 04:37:33;;;;;;;2.38;1.05;;;8.80;69.40;;;;;;5091655;28;20035;-78
2021/05/24 04:39:58;;;;;;;1.73;0.90;;;8.80;69.10;;;;;;5092403;28;20111;-77
2021/05/24 04:42:24;;;;;;;5.28;2.15;;;8.90;69.00;;;;;;5093520;28;20533;-78
2021/05/24 04:44:50;;;;;;;5.25;2.42;;;8.90;69.10;;;;;;5092391;28;20040;-78
2021/05/24 04:47:17;;;;;;;4.22;1.98;;;8.90;69.40;;;;;;5091837;28;20028;-77
2021/05/24 04:49:49;;;;;;;3.88;1.77;;;9.00;69.50;;;;;;5092252;28;20027;-77
2021/05/24 04:52:15;;;;;;;3.28;1.58;;;9.00;70.40;;;;;;5093473;28;20031;-77
2021/05/24 04:54:41;;;;;;;3.35;1.50;;;9.00;69.50;;;;;;5093341;28;20119;-78
2021/05/24 04:57:08;;;;;;;4.50;1.30;;;8.80;70.30;;;;;;5092110;28;20107;-76
2021/05/24 04:59:33;;;;;;;3.78;1.70;;;8.80;70.40;;;;;;5075007;28;20089;-76
2021/05/24 05:01:59;;;;;;;3.35;1.80;;;8.80;70.10;;;;;;5091882;28;20020;-77
2021/05/24 05:04:24;;;;;;;7.03;3.00;;;8.70;70.50;;;;;;5091932;28;20024;-78
2021/05/24 05:06:54;;;;;;;6.47;3.10;;;8.70;70.50;;;;;;5075163;28;20036;-78
2021/05/24 05:09:22;;;;;;;6.53;2.80;;;8.70;70.50;;;;;;5091890;28;20052;-78
2021/05/24 05:11:47;;;;;;;9.13;3.60;;;8.80;70.50;;;;;;5091998;28;20032;-77
2021/05/24 05:14:13;;;;;;;5.85;2.72;;;8.80;70.40;;;;;;5075108;28;20024;-78
2021/05/24 05:16:38;;;;;;;4.32;1.88;;;8.80;70.30;;;;;;5091921;28;20027;-78
2021/05/24 05:19:06;;;;;;;4.80;1.88;;;8.90;70.30;;;;;;5091806;28;20028;-80
2021/05/24 05:21:33;;;;;;;2.58;1.73;;;8.90;70.20;;;;;;5092018;28;20485;-79
2021/05/24 05:23:58;;;;;;;3.85;1.50;;;8.80;70.10;;;;;;5091887;28;20028;-78
2021/05/24 05:26:25;;;;;;;2.95;1.40;;;8.80;70.30;;;;;;5092935;28;20107;-79
2021/05/24 05:28:51;;;;;;;3.30;1.80;;;8.80;70.20;;;;;;5091868;28;20145;-79
2021/05/24 05:31:18;;;;;;;2.17;1.67;;;8.80;70.60;;;;;;5074846;28;20028;-78
2021/05/24 05:33:43;;;;;;;3.58;2.35;;;8.80;70.70;;;;;;5092025;28;20081;-78
2021/05/24 05:36:10;;;;;;;5.13;2.47;;;8.90;70.40;;;;;;5091323;28;20444;-78
2021/05/24 05:38:36;;;;;;;5.93;1.70;;;9.00;70.00;;;;;;5091344;28;20070;-78
2021/05/24 05:41:05;;;;;;;3.88;1.65;;;9.10;69.70;;;;;;5074900;28;20025;-78
2021/05/24 05:43:30;;;;;;;6.35;2.10;;;9.10;69.20;;;;;;5093039;28;20026;-80
2021/05/24 05:45:57;;;;;;;1.75;1.20;;;9.20;69.00;;;;;;5091329;28;20036;-78
2021/05/24 05:48:23;;;;;;;6.13;2.03;;;9.30;68.80;;;;;;5092763;28;20020;-79
2021/05/24 05:50:49;;;;;;;2.97;1.42;;;9.30;68.70;;;;;;5095110;28;20032;-78
2021/05/24 05:53:16;;;;;;;4.95;1.60;;;9.40;68.60;;;;;;5095474;28;20023;-78
2021/05/24 05:55:42;;;;;;;4.55;1.40;;;9.50;68.60;;;;;;5095636;28;20071;-77
2021/05/24 05:58:08;;;;;;;1.85;1.20;;;9.60;68.70;;;;;;5095181;28;20071;-77
2021/05/24 06:00:34;;;;;;;3.97;1.42;;;9.70;68.70;;;;;;5095291;28;20058;-76
2021/05/24 06:03:00;;;;;;;2.15;1.17;;;9.80;68.70;;;;;;5095415;28;20078;-76
2021/05/24 06:05:25;;;;;;;2.08;1.40;;;9.90;68.70;;;;;;5095187;28;20027;-77
2021/05/24 06:07:51;;;;;;;2.65;1.10;;;9.90;68.50;;;;;;5095222;28;20161;-76
2021/05/24 06:10:17;;;;;;;1.10;0.80;;;10.00;68.30;;;;;;5095264;28;20101;-76
2021/05/24 06:12:44;;;;;;;2.63;1.20;;;10.10;68.10;;;;;;5095127;28;20028;-77
2021/05/24 06:15:12;;;;;;;2.45;1.27;;;10.30;67.70;;;;;;5095175;28;20115;-77
2021/05/24 06:17:38;;;;;;;2.55;1.00;;;10.30;67.50;;;;;;5095001;28;20040;-76
2021/05/24 06:20:07;;;;;;;2.20;1.15;;;10.40;67.10;;;;;;5094777;28;20161;-78
2021/05/24 06:22:32;;;;;;;1.90;1.10;;;10.60;66.90;;;;;;5095119;28;20024;-79
2021/05/24 06:24:58;;;;;;;1.50;0.95;;;10.60;66.40;;;;;;5096347;28;20357;-78
2021/05/24 06:27:24;;;;;;;2.20;1.00;;;10.70;66.30;;;;;;5078209;28;20031;-78
2021/05/24 06:29:50;;;;;;;1.95;1.05;;;10.80;66.30;;;;;;5094988;28;20111;-79
2021/05/24 06:32:16;;;;;;;4.93;1.50;;;10.90;66.30;;;;;;5077853;28;20032;-78
2021/05/24 06:34:42;;;;;;;2.40;1.10;;;11.00;65.50;;;;;;5094948;28;20119;-79
2021/05/24 06:37:07;;;;;;;5.28;1.70;;;11.10;65.30;;;;;;5094463;28;20119;-78
2021/05/24 06:39:34;;;;;;;2.92;1.33;;;11.20;64.80;;;;;;5095882;28;20028;-78
2021/05/24 06:42:00;;;;;;;3.35;1.33;;;11.20;64.10;;;;;;5077908;28;20195;-78
2021/05/24 06:44:27;;;;;;;3.42;1.20;;;11.30;63.70;;;;;;5078355;28;20528;-77
2021/05/24 06:46:52;;;;;;;2.30;1.25;;;11.50;63.40;;;;;;5082726;28;20025;-78
2021/05/24 06:49:18;;;;;;;2.75;1.13;;;11.70;63.20;;;;;;5098717;28;20591;-78
2021/05/24 06:51:44;;;;;;;1.25;0.80;;;11.80;62.90;;;;;;5094933;28;20578;-78
2021/05/24 06:54:10;;;;;;;1.60;0.98;;;12.00;62.50;;;;;;5094444;28;20110;-79
2021/05/24 06:56:36;;;;;;;5.47;1.80;;;12.10;62.10;;;;;;5094176;28;20044;-78
2021/05/24 06:59:02;;;;;;;8.38;2.45;;;12.20;61.80;;;;;;5094350;28;20146;-79
2021/05/24 07:01:29;;;;;;;2.95;1.10;;;12.40;61.60;;;;;;5075810;28;20025;-78
2021/05/24 07:03:54;;;;;;;3.63;1.10;;;12.50;61.40;;;;;;5094040;28;20066;-78
2021/05/24 07:06:20;;;;;;;1.98;0.95;;;12.50;60.50;;;;;;5077201;28;20048;-78
2021/05/24 07:08:47;;;;;;;1.35;0.88;;;12.70;60.00;;;;;;5094078;28;20074;-80
2021/05/24 07:11:12;;;;;;;2.25;1.00;;;12.80;59.60;;;;;;5077214;28;20028;-78
2021/05/24 07:13:38;;;;;;;1.73;1.00;;;13.00;59.40;;;;;;5093812;28;20089;-79
2021/05/24 07:16:04;;;;;;;4.00;1.52;;;12.90;58.60;;;;;;5093901;28;20115;-78
2021/05/24 07:18:32;;;;;;;2.13;1.15;;;12.90;59.20;;;;;;5093432;28;20036;-79
2021/05/24 07:21:00;;;;;;;4.63;0.93;;;12.90;59.10;;;;;;5093603;28;20028;-79
2021/05/24 07:23:25;;;;;;;1.90;1.10;;;13.00;59.30;;;;;;5094785;28;20028;-79
2021/05/24 07:25:52;;;;;;;3.15;1.33;;;13.00;59.10;;;;;;5093648;28;20051;-78
2021/05/24 07:28:19;;;;;;;2.75;1.48;;;13.10;58.70;;;;;;5093755;28;20028;-78
2021/05/24 07:30:44;;;;;;;14.45;2.30;;;13.20;59.60;;;;;;5076892;28;20489;-77
2021/05/24 07:33:10;;;;;;;27.83;2.95;;;13.40;62.60;;;;;;5093485;28;20032;-78
2021/05/24 07:35:35;;;;;;;7.20;1.52;;;13.90;67.80;;;;;;5093075;28;20112;-78
2021/05/24 07:38:01;;;;;;;11.05;2.03;;;14.30;62.70;;;;;;5093339;28;20028;-76
2021/05/24 07:40:26;;;;;;;4.88;2.00;;;14.70;61.40;;;;;;5093363;28;20027;-78
2021/05/24 07:42:55;;;;;;;5.03;1.83;;;15.10;59.00;;;;;;5094240;28;20040;-78
2021/05/24 07:45:22;;;;;;;11.35;2.15;;;15.40;56.40;;;;;;5094613;28;20123;-77
2021/05/24 07:47:54;;;;;;;3.03;1.85;;;15.50;56.00;;;;;;5094777;28;20024;-76
2021/05/24 07:50:20;;;;;;;6.35;2.03;;;15.70;55.40;;;;;;5093218;28;20629;-77
2021/05/24 07:52:46;;;;;;;3.88;1.30;;;15.90;55.30;;;;;;5092884;28;20050;-76
2021/05/24 07:55:13;;;;;;;3.25;1.52;;;16.10;54.00;;;;;;5093343;28;20016;-76
2021/05/24 07:57:39;;;;;;;2.78;1.65;;;16.20;53.90;;;;;;5093146;28;20491;-76
2021/05/24 08:00:07;;;;;;;3.95;1.80;;;16.30;53.10;;;;;;5092926;28;20035;-76
2021/05/24 08:02:33;;;;;;;5.03;1.70;;;16.40;52.30;;;;;;5092908;28;20042;-76
2021/05/24 08:04:59;;;;;;;5.65;1.95;;;16.40;52.20;;;;;;5094064;28;20394;-77
2021/05/24 08:07:25;;;;;;;3.35;1.20;;;16.60;52.20;;;;;;5092820;28;20030;-76
2021/05/24 08:09:51;;;;;;;5.25;1.50;;;16.60;51.50;;;;;;5093012;28;20028;-76
2021/05/24 08:12:17;;;;;;;2.15;1.60;;;16.60;51.50;;;;;;5075925;28;20066;-75
2021/05/24 08:14:43;;;;;;;4.22;1.80;;;16.70;51.30;;;;;;5092637;28;20055;-76
2021/05/24 08:17:09;;;;;;;2.05;1.52;;;16.70;50.90;;;;;;5093012;28;20028;-77
2021/05/24 08:19:35;;;;;;;3.20;1.60;;;16.80;50.90;;;;;;5094227;28;20021;-76
2021/05/24 08:22:01;;;;;;;2.47;1.27;;;16.90;50.70;;;;;;5092861;28;20565;-74
2021/05/24 08:24:27;;;;;;;2.42;1.52;;;16.90;49.90;;;;;;5092971;28;20028;-75
2021/05/24 08:26:53;;;;;;;4.80;1.50;;;17.00;49.70;;;;;;5093217;28;20077;-75
2021/05/24 08:29:18;;;;;;;4.57;2.00;;;17.00;49.60;;;;;;5092302;28;20020;-75
2021/05/24 08:31:44;;;;;;;4.03;1.80;;;17.10;50.00;;;;;;5092409;28;20024;-74
2021/05/24 08:34:10;;;;;;;3.05;1.92;;;17.10;49.40;;;;;;5092579;28;20410;-76
2021/05/24 08:36:38;;;;;;;3.97;2.67;;;17.10;49.60;;;;;;5093681;28;20036;-76
2021/05/24 08:39:05;;;;;;;3.45;1.50;;;17.20;49.70;;;;;;5092520;28;20115;-76
2021/05/24 08:41:34;;;;;;;2.70;1.50;;;17.20;49.90;;;;;;5092844;28;20048;-76
2021/05/24 08:44:00;;;;;;;2.78;1.40;;;17.30;49.80;;;;;;5092469;28;20444;-80
2021/05/24 08:46:27;;;;;;;3.70;1.40;;;17.30;49.80;;;;;;5093165;28;20044;-76
2021/05/24 08:48:53;;;;;;;4.00;2.20;;;17.20;50.20;;;;;;5092422;28;20062;-77
2021/05/24 08:51:20;;;;;;;4.20;2.75;;;17.10;50.00;;;;;;5092006;28;20484;-77
2021/05/24 08:53:46;;;;;;;7.18;3.20;;;17.00;50.20;;;;;;5090884;28;20012;-77
2021/05/24 08:56:11;;;;;;;8.15;5.13;;;17.00;50.50;;;;;;5091290;28;20020;-77
2021/05/24 08:58:39;;;;;;;9.00;4.32;;;17.10;50.80;;;;;;5091834;28;20036;-77
2021/05/24 09:01:06;;;;;;;4.95;3.58;;;17.10;50.70;;;;;;5091673;28;20089;-77
2021/05/24 09:03:34;;;;;;;5.47;3.25;;;17.20;50.00;;;;;;5091795;28;20055;-77
2021/05/24 09:06:02;;;;;;;3.70;2.50;;;17.20;49.90;;;;;;5075172;28;20039;-78
2021/05/24 09:08:42;;;;;;;5.90;3.20;;;17.20;49.80;;;;;;5090915;28;20388;-78
2021/05/24 09:11:29;;;;;;;4.65;3.00;;;17.30;49.90;;;;;;5107647;28;20324;-78
2021/05/24 09:13:55;;;;;;;4.57;3.10;;;17.40;49.50;;;;;;5088895;28;20015;-78
2021/05/24 09:16:29;;;;;;;3.33;2.28;;;17.50;49.40;;;;;;5091720;28;20032;-79
2021/05/24 09:19:17;;;;;;;3.70;1.92;;;17.50;49.40;;;;;;5091611;28;20123;-79
2021/05/24 09:22:06;;;;;;;3.33;1.90;;;17.60;48.30;;;;;;5091801;28;20177;-78
2021/05/24 09:24:38;;;;;;;4.32;2.80;;;17.70;47.70;;;;;;5090919;28;20020;-78
2021/05/24 09:27:06;;;;;;;4.65;2.90;;;17.70;48.90;;;;;;5091638;28;20017;-79
2021/05/24 09:29:43;;;;;;;5.60;3.60;;;17.80;47.50;;;;;;5091702;28;20032;-78
2021/05/24 09:32:15;;;;;;;1.67;1.42;;;17.70;47.60;;;;;;5092841;28;20028;-78
2021/05/24 09:34:43;;;;;;;2.80;0.98;;;17.70;48.00;;;;;;5074969;28;20028;-78
2021/05/24 09:37:08;;;;;;;1.17;0.80;;;17.50;48.00;;;;;;5091674;28;20028;-78
2021/05/24 09:39:35;;;;;;;1.05;0.88;;;17.40;48.00;;;;;;5091555;28;20032;-78
2021/05/24 09:42:09;;;;;;;2.25;0.68;;;17.40;48.30;;;;;;5091361;28;20024;-78
2021/05/24 09:44:46;;;;;;;1.73;0.70;;;17.50;48.30;;;;;;5091352;28;20396;-78
2021/05/24 09:47:13;;;;;;;2.45;0.70;;;17.60;47.60;;;;;;5091580;28;20027;-77
2021/05/24 09:49:39;;;;;;;1.15;0.80;;;17.80;47.10;;;;;;5091709;28;20039;-79
2021/05/24 09:52:05;;;;;;;2.75;0.63;;;17.80;46.20;;;;;;5091362;28;20024;-77
2021/05/24 09:54:33;;;;;;;0.70;0.65;;;17.80;44.60;;;;;;5091240;28;20024;-78
2021/05/24 09:57:05;;;;;;;1.25;0.70;;;17.80;43.50;;;;;;5074529;28;20028;-77
2021/05/24 09:59:35;;;;;;;0.80;0.63;;;17.80;41.70;;;;;;5092608;28;20536;-78
2021/05/24 10:02:04;;;;;;;2.53;0.75;;;17.80;40.10;;;;;;5092824;28;20028;-77
2021/05/24 10:04:33;;;;;;;2.40;0.60;;;17.80;39.50;;;;;;5092878;28;20092;-78
2021/05/24 10:07:03;;;;;;;1.02;0.40;;;17.90;39.50;;;;;;5091370;28;20028;-77
2021/05/24 10:09:35;;;;;;;1.65;0.40;;;18.00;39.30;;;;;;5091404;28;20111;-80
2021/05/24 10:12:03;;;;;;;0.25;0.20;;;17.90;35.30;;;;;;5091392;28;20028;-78
2021/05/24 10:14:29;;;;;;;0.75;0.38;;;17.80;33.60;;;;;;5091348;28;20499;-78
2021/05/24 10:17:01;;;;;;;2.25;0.30;;;17.70;31.80;;;;;;5091089;28;20032;-79
2021/05/24 10:19:27;;;;;;;0.57;0.30;;;17.50;31.40;;;;;;5091283;28;20034;-79
2021/05/24 10:21:53;;;;;;;1.10;0.40;;;17.40;31.20;;;;;;5091464;28;20024;-79
2021/05/24 10:24:21;;;;;;;2.08;0.40;;;17.30;31.80;;;;;;5090468;28;20398;-78
2021/05/24 10:26:48;;;;;;;1.20;0.50;;;17.30;32.30;;;;;;5091872;28;20028;-77
2021/05/24 10:29:14;;;;;;;2.10;0.40;;;17.30;32.20;;;;;;5091121;28;20058;-78
2021/05/24 10:31:41;;;;;;;0.90;0.30;;;17.30;32.40;;;;;;5091908;28;20024;-78
2021/05/24 10:34:19;;;;;;;1.90;0.52;;;17.30;32.70;;;;;;5090812;28;20069;-79
2021/05/24 10:37:06;;;;;;;2.15;0.63;;;17.20;31.60;;;;;;5092814;28;20043;-78
2021/05/24 10:40:06;;;;;;;0.93;0.45;;;17.00;32.10;;;;;;5094832;28;20028;-78
2021/05/24 10:42:46;;;;;;;0.90;0.47;;;17.00;32.80;;;;;;5096075;28;20044;-75
2021/05/24 10:45:21;;;;;;;1.05;0.30;;;17.00;33.40;;;;;;5094739;28;20048;-76
2021/05/24 10:47:52;;;;;;;1.58;0.30;;;17.00;32.70;;;;;;5094516;28;20031;-76
2021/05/24 10:50:21;;;;;;;2.05;0.47;;;16.80;33.30;;;;;;5094493;28;20381;-77
2021/05/24 10:52:59;;;;;;;2.35;0.40;;;16.90;33.80;;;;;;5077740;28;20028;-77
2021/05/24 10:55:28;;;;;;;0.68;0.20;;;17.00;33.30;;;;;;5099443;28;20373;-76
2021/05/24 10:58:21;;;;;;;0.95;0.60;;;17.00;34.50;;;;;;5095111;28;20039;-76
2021/05/24 11:01:04;;;;;;;0.93;0.38;;;17.20;35.00;;;;;;5094040;28;20044;-76
2021/05/24 11:03:31;;;;;;;0.98;0.40;;;17.40;34.70;;;;;;5094134;28;20020;-77
2021/05/24 11:06:20;;;;;;;1.23;0.50;;;17.60;34.30;;;;;;5077230;28;20032;-76
2021/05/24 11:09:00;;;;;;;1.55;0.50;;;17.70;33.70;;;;;;5094206;28;20046;-76
2021/05/24 11:11:28;;;;;;;1.98;0.50;;;17.90;33.80;;;;;;5093896;28;20567;-78
2021/05/24 11:14:21;;;;;;;0.90;0.40;;;18.20;34.10;;;;;;5095282;28;20043;-77
2021/05/24 11:16:58;;;;;;;0.47;0.35;;;18.40;33.70;;;;;;5091372;28;20039;-77
2021/05/24 11:19:26;;;;;;;0.40;0.30;;;18.50;34.00;;;;;;5093927;28;20029;-78
2021/05/24 11:22:43;;;;;;;2.20;0.47;;;18.50;34.10;;;;;;5077372;28;20046;-78
2021/05/24 11:28:13;;;;;;;1.30;0.50;;;18.90;33.70;;;;;;5095288;28;20035;-78
2021/05/24 11:30:39;;;;;;;1.25;0.70;;;18.90;33.70;;;;;;5076669;28;20484;-78
2021/05/24 11:33:37;;;;;;;1.38;0.63;;;18.90;33.80;;;;;;5093663;28;20060;-78
2021/05/24 11:36:04;;;;;;;0.65;0.45;;;18.70;33.30;;;;;;5093647;28;20380;-78
2021/05/24 11:38:31;;;;;;;0.95;0.70;;;18.50;31.60;;;;;;5094596;28;20036;-78
2021/05/24 11:41:15;;;;;;;1.23;0.60;;;18.70;31.20;;;;;;5094860;28;20103;-77
2021/05/24 11:43:43;;;;;;;1.10;0.50;;;18.70;31.90;;;;;;5093509;28;20024;-77
2021/05/24 11:46:10;;;;;;;1.50;0.52;;;18.70;33.30;;;;;;5093334;28;20040;-77
2021/05/24 11:48:41;;;;;;;2.60;1.65;;;18.50;32.20;;;;;;5092695;28;20431;-77
2021/05/24 11:51:09;;;;;;;3.65;0.90;;;18.20;31.20;;;;;;5093171;28;20101;-76
2021/05/24 11:53:35;;;;;;;0.68;0.30;;;18.10;30.90;;;;;;5092810;28;20383;-77
2021/05/24 11:56:09;;;;;;;1.20;0.60;;;17.90;31.20;;;;;;5092424;28;20502;-78
2021/05/24 11:59:01;;;;;;;1.55;0.60;;;17.80;32.80;;;;;;5093481;28;20040;-77
2021/05/24 12:01:28;;;;;;;0.30;0.30;;;17.70;31.10;;;;;;5076276;28;20028;-78
2021/05/24 12:03:55;;;;;;;1.45;0.55;;;17.70;31.20;;;;;;5093113;28;20077;-77
2021/05/24 12:06:24;;;;;;;1.60;0.38;;;17.60;31.60;;;;;;5092978;28;20020;-77
2021/05/24 12:08:52;;;;;;;1.00;0.35;;;17.60;31.70;;;;;;5076285;28;20119;-78
2021/05/24 12:11:18;;;;;;;0.30;0.30;;;17.50;31.90;;;;;;5092896;28;20016;-78
2021/05/24 12:14:08;;;;;;;0.60;0.13;;;17.30;32.10;;;;;;5093055;28;20028;-79
2021/05/24 12:16:34;;;;;;;2.53;0.57;;;17.20;32.70;;;;;;5092731;28;20039;-78
2021/05/24 12:19:01;;;;;;;0.90;0.28;;;17.20;32.70;;;;;;5075647;28;20044;-77
2021/05/24 12:21:41;;;;;;;1.92;0.22;;;17.20;32.80;;;;;;5092489;28;20028;-77
2021/05/24 12:24:09;;;;;;;0.75;0.40;;;17.10;33.00;;;;;;5092698;28;20134;-78
2021/05/24 12:26:40;;;;;;;1.23;0.20;;;17.10;33.30;;;;;;5092607;28;20384;-77
2021/05/24 12:29:08;;;;;;;1.08;0.60;;;17.10;33.80;;;;;;5092649;28;20024;-77
2021/05/24 12:31:34;;;;;;;0.75;0.35;;;17.10;34.10;;;;;;5097696;28;20016;-77
2021/05/24 12:34:02;;;;;;;2.40;0.40;;;17.20;33.50;;;;;;5093158;28;20028;-82
2021/05/24 12:36:44;;;;;;;1.00;0.30;;;17.10;33.10;;;;;;5092387;28;20024;-77
2021/05/24 12:39:10;;;;;;;0.45;0.30;;;17.10;33.60;;;;;;5092653;28;20043;-78
2021/05/24 12:41:37;;;;;;;1.00;0.40;;;17.20;34.20;;;;;;5075621;28;20031;-76
2021/05/24 12:44:06;;;;;;;1.30;0.40;;;17.10;33.80;;;;;;5093820;28;20024;-78
2021/05/24 12:46:41;;;;;;;1.48;0.50;;;17.10;33.90;;;;;;5092052;28;20123;-77
2021/05/24 12:49:07;;;;;;;1.60;0.40;;;17.00;33.50;;;;;;5092444;28;20441;-77
2021/05/24 12:51:33;;;;;;;2.70;0.43;;;17.00;33.30;;;;;;5092030;28;20077;-77
2021/05/24 12:54:06;;;;;;;1.25;0.40;;;17.00;33.50;;;;;;5075211;28;20024;-78
2021/05/24 12:56:37;;;;;;;2.65;0.20;;;16.90;34.20;;;;;;5091952;28;20035;-80
2021/05/24 12:59:23;;;;;;;1.75;0.40;;;16.80;34.10;;;;;;5091980;28;20040;-77
2021/05/24 13:01:50;;;;;;;;;;;16.90;34.10;;;;;;5075226;28;20051;-76